createdAt,value
2022-09-11T00:00:11.194Z,97728.88
2022-09-11T00:02:21.784Z,97722.56
2022-09-11T00:04:30.262Z,97720.50
2022-09-11T00:06:41.243Z,97723.91
2022-09-11T00:08:50.918Z,97719.75
2022-09-11T00:10:58.902Z,97721.13
2022-09-11T00:13:07.467Z,97719.03
2022-09-11T00:15:15.384Z,97722.69
2022-09-11T00:17:23.202Z,97721.47
2022-09-11T00:19:32.108Z,97713.91
2022-09-11T00:21:43.141Z,97719.50
2022-09-11T00:23:51.838Z,97716.25
2022-09-11T00:26:04.493Z,97717.44
2022-09-11T00:28:16.537Z,97712.47
2022-09-11T00:30:24.434Z,97710.13
2022-09-11T00:32:33.570Z,97712.47
2022-09-11T00:34:41.549Z,97715.28
2022-09-11T00:36:54.164Z,97713.06
2022-09-11T00:39:02.783Z,97711.47
2022-09-11T00:41:15.439Z,97708.81
2022-09-11T00:43:24.340Z,97701.41
2022-09-11T00:45:32.349Z,97706.97
2022-09-11T00:47:40.219Z,97706.88
2022-09-11T00:49:51.173Z,97714.78
2022-09-11T00:52:05.961Z,97707.59
2022-09-11T00:54:17.085Z,97704.91
2022-09-11T00:56:26.879Z,97705.16
2022-09-11T00:58:40.894Z,97704.06
2022-09-11T01:00:49.274Z,97707.34
2022-09-11T01:02:58.447Z,97700.41
2022-09-11T01:05:07.666Z,97694.69
2022-09-11T01:07:18.258Z,97698.34
2022-09-11T01:09:26.533Z,97697.22
2022-09-11T01:11:50.329Z,97691.16
2022-09-11T01:14:06.466Z,97693.00
2022-09-11T01:16:24.265Z,97693.84
2022-09-11T01:18:38.478Z,97696.25
2022-09-11T01:21:03.206Z,97689.00
2022-09-11T01:23:57.053Z,97685.72
2022-09-11T01:26:24.905Z,97676.69
2022-09-11T01:28:40.147Z,97671.69
2022-09-11T01:30:52.260Z,97684.00
2022-09-11T01:33:09.223Z,97676.72
2022-09-11T01:35:24.975Z,97680.25
2022-09-11T01:37:41.718Z,97686.59
2022-09-11T01:40:01.673Z,97685.97
2022-09-11T01:42:17.219Z,97673.94
2022-09-11T01:44:32.347Z,97683.91
2022-09-11T01:46:44.569Z,97682.09
2022-09-11T01:49:04.418Z,97684.28
2022-09-11T01:51:18.381Z,97670.69
2022-09-11T01:53:34.883Z,97680.13
2022-09-11T01:55:50.238Z,97673.84
2022-09-11T01:58:03.300Z,97674.59
2022-09-11T02:00:17.953Z,97676.16
2022-09-11T02:02:38.038Z,97674.56
2022-09-11T02:04:51.238Z,97668.38
2022-09-11T02:07:12.342Z,97673.13
2022-09-11T02:09:26.542Z,97669.50
2022-09-11T02:11:39.156Z,97676.88
2022-09-11T02:13:56.933Z,97682.72
2022-09-11T02:16:17.542Z,97677.50
2022-09-11T02:18:43.403Z,97683.56
2022-09-11T02:20:51.467Z,97683.97
2022-09-11T02:23:00.057Z,97689.78
2022-09-11T02:25:09.171Z,97690.63
2022-09-11T02:27:22.000Z,97692.91
2022-09-11T02:29:30.517Z,97699.13
2022-09-11T02:31:43.886Z,97695.13
2022-09-11T02:33:53.372Z,97694.38
2022-09-11T02:36:20.539Z,97700.47
2022-09-11T02:38:36.106Z,97701.19
2022-09-11T02:40:55.703Z,97693.66
2022-09-11T02:43:25.649Z,97701.03
2022-09-11T02:45:44.122Z,97701.53
2022-09-11T02:48:05.854Z,97702.88
2022-09-11T02:50:25.928Z,97701.31
2022-09-11T02:52:45.459Z,97705.91
2022-09-11T02:55:00.252Z,97713.34
2022-09-11T02:57:13.367Z,97714.31
2022-09-11T02:59:26.392Z,97719.16
2022-09-11T03:01:35.235Z,97716.50
2022-09-11T03:03:48.513Z,97717.69
2022-09-11T03:05:57.388Z,97726.06
2022-09-11T03:08:05.599Z,97720.84
2022-09-11T03:10:14.221Z,97719.78
2022-09-11T03:12:22.299Z,97725.84
2022-09-11T03:14:31.414Z,97722.94
2022-09-11T03:16:41.053Z,97729.50
2022-09-11T03:18:53.262Z,97722.31
2022-09-11T03:21:01.215Z,97719.78
2022-09-11T03:23:11.096Z,97719.03
2022-09-11T03:25:18.929Z,97712.34
2022-09-11T03:27:28.285Z,97723.16
2022-09-11T03:29:36.238Z,97727.19
2022-09-11T03:31:44.107Z,97726.22
2022-09-11T03:33:55.445Z,97725.09
2022-09-11T03:36:03.855Z,97730.81
2022-09-11T03:38:12.200Z,97723.88
2022-09-11T03:40:23.051Z,97729.97
2022-09-11T03:42:31.221Z,97731.31
2022-09-11T03:44:39.228Z,97727.06
2022-09-11T03:46:47.191Z,97735.47
2022-09-11T03:48:57.825Z,97735.47
2022-09-11T03:51:06.209Z,97732.38
2022-09-11T03:53:14.369Z,97728.00
2022-09-11T03:55:23.523Z,97733.84
2022-09-11T03:57:31.447Z,97732.88
2022-09-11T03:59:39.284Z,97742.59
2022-09-11T04:01:50.903Z,97736.53
2022-09-11T04:04:01.880Z,97737.75
2022-09-11T04:06:15.149Z,97743.72
2022-09-11T04:08:24.362Z,97741.28
2022-09-11T04:10:34.859Z,97737.03
2022-09-11T04:12:44.463Z,97734.09
2022-09-11T04:14:54.014Z,97734.84
2022-09-11T04:17:02.207Z,97734.22
2022-09-11T04:19:15.003Z,97742.25
2022-09-11T04:21:25.141Z,97742.97
2022-09-11T04:23:35.794Z,97740.19
2022-09-11T04:25:43.614Z,97738.47
2022-09-11T04:27:51.603Z,97741.88
2022-09-11T04:29:59.406Z,97744.81
2022-09-11T04:32:08.205Z,97749.19
2022-09-11T04:34:23.118Z,97755.63
2022-09-11T04:36:30.986Z,97759.63
2022-09-11T04:38:40.910Z,97761.56
2022-09-11T04:40:50.778Z,97762.88
2022-09-11T04:42:59.243Z,97768.25
2022-09-11T04:45:07.996Z,97765.56
2022-09-11T04:47:16.220Z,97764.81
2022-09-11T04:49:28.581Z,97766.78
2022-09-11T04:51:39.167Z,97774.91
2022-09-11T04:53:50.079Z,97769.47
2022-09-11T04:56:05.402Z,97778.44
2022-09-11T04:58:19.679Z,97779.91
2022-09-11T05:00:27.582Z,97786.22
2022-09-11T05:02:36.476Z,97790.38
2022-09-11T05:04:48.105Z,97794.09
2022-09-11T05:06:55.862Z,97793.75
2022-09-11T05:09:07.229Z,97795.84
2022-09-11T05:11:17.899Z,97810.16
2022-09-11T05:13:25.933Z,97804.94
2022-09-11T05:15:34.217Z,97811.16
2022-09-11T05:17:42.183Z,97812.59
2022-09-11T05:19:56.170Z,97811.91
2022-09-11T05:22:04.660Z,97816.97
2022-09-11T05:24:14.304Z,97813.59
2022-09-11T05:26:24.423Z,97819.94
2022-09-11T05:28:35.837Z,97818.44
2022-09-11T05:30:44.967Z,97826.00
2022-09-11T05:32:56.370Z,97828.44
2022-09-11T05:35:07.887Z,97826.97
2022-09-11T05:37:16.164Z,97833.66
2022-09-11T05:39:26.609Z,97841.69
2022-09-11T05:41:38.297Z,97839.50
2022-09-11T05:43:46.454Z,97840.34
2022-09-11T05:45:58.521Z,97841.53
2022-09-11T05:48:09.230Z,97840.59
2022-09-11T05:50:21.739Z,97848.25
2022-09-11T05:52:32.120Z,97849.28
2022-09-11T05:54:39.915Z,97855.25
2022-09-11T05:56:48.028Z,97856.72
2022-09-11T05:59:03.112Z,97860.94
2022-09-11T06:01:21.216Z,97869.84
2022-09-11T06:03:36.031Z,97867.06
2022-09-11T06:05:46.474Z,97872.66
2022-09-11T06:07:54.307Z,97867.63
2022-09-11T06:10:03.368Z,97872.88
2022-09-11T06:12:13.560Z,97876.75
2022-09-11T06:14:23.265Z,97883.66
2022-09-11T06:16:32.908Z,97887.94
2022-09-11T06:18:50.221Z,97881.81
2022-09-11T06:21:07.276Z,97890.78
2022-09-11T06:23:21.789Z,97894.19
2022-09-11T06:25:30.265Z,97903.16
2022-09-11T06:27:39.703Z,97894.97
2022-09-11T06:29:48.123Z,97901.47
2022-09-11T06:31:57.610Z,97901.06
2022-09-11T06:34:09.474Z,97904.78
2022-09-11T06:36:23.115Z,97910.16
2022-09-11T06:38:33.034Z,97907.34
2022-09-11T06:40:42.579Z,97910.63
2022-09-11T06:42:50.464Z,97914.88
2022-09-11T06:44:58.774Z,97917.69
2022-09-11T06:47:06.717Z,97917.41
2022-09-11T06:49:16.649Z,97921.66
2022-09-11T06:51:47.046Z,97928.88
2022-09-11T06:53:58.170Z,97923.88
2022-09-11T06:56:11.597Z,97927.81
2022-09-11T06:58:20.699Z,97929.97
2022-09-11T07:00:29.289Z,97925.03
2022-09-11T07:02:37.133Z,97930.81
2022-09-11T07:04:45.298Z,97930.28
2022-09-11T07:06:58.006Z,97927.09
2022-09-11T07:09:06.731Z,97928.97
2022-09-11T07:11:22.048Z,97925.38
2022-09-11T07:13:32.420Z,97924.91
2022-09-11T07:15:42.915Z,97921.50
2022-09-11T07:17:51.443Z,97929.34
2022-09-11T07:20:00.527Z,97936.47
2022-09-11T07:22:12.011Z,97935.13
2022-09-11T07:24:20.727Z,97928.50
2022-09-11T07:26:31.726Z,97925.88
2022-09-11T07:28:47.147Z,97932.91
2022-09-11T07:30:55.044Z,97924.59
2022-09-11T07:33:03.212Z,97939.22
2022-09-11T07:35:11.898Z,97939.34
2022-09-11T07:37:22.589Z,97938.22
2022-09-11T07:39:30.455Z,97940.50
2022-09-11T07:41:45.210Z,97946.16
2022-09-11T07:43:59.875Z,97944.47
2022-09-11T07:46:10.574Z,97952.34
2022-09-11T07:48:20.651Z,97948.50
2022-09-11T07:50:28.927Z,97950.50
2022-09-11T07:52:40.072Z,97950.72
2022-09-11T07:54:48.318Z,97958.50
2022-09-11T07:56:58.189Z,97959.84
2022-09-11T07:59:22.910Z,97963.38
2022-09-11T08:01:34.312Z,97962.84
2022-09-11T08:03:43.241Z,97965.88
2022-09-11T08:05:51.206Z,97964.50
2022-09-11T08:08:01.820Z,97960.69
2022-09-11T08:10:26.594Z,97964.69
2022-09-11T08:12:36.576Z,97963.44
2022-09-11T08:14:44.511Z,97968.84
2022-09-11T08:16:58.237Z,97972.56
2022-09-11T08:19:09.967Z,97975.97
2022-09-11T08:21:18.679Z,97980.09
2022-09-11T08:23:31.267Z,97975.72
2022-09-11T08:25:40.602Z,97978.50
2022-09-11T08:27:49.871Z,97986.03
2022-09-11T08:30:00.919Z,97977.88
2022-09-11T08:32:09.534Z,97983.69
2022-09-11T08:34:17.412Z,97982.13
2022-09-11T08:36:27.446Z,97986.94
2022-09-11T08:38:40.391Z,97983.59
2022-09-11T08:40:49.917Z,97986.44
2022-09-11T08:43:00.312Z,97991.81
2022-09-11T08:45:10.134Z,97990.94
2022-09-11T08:47:25.591Z,97994.94
2022-09-11T08:49:41.920Z,97991.78
2022-09-11T08:51:51.573Z,97989.97
2022-09-11T08:54:04.235Z,97987.78
2022-09-11T08:56:22.580Z,97989.78
2022-09-11T08:58:39.760Z,97985.94
2022-09-11T09:00:57.631Z,97993.25
2022-09-11T09:03:23.553Z,97991.38
2022-09-11T09:05:40.391Z,98002.81
2022-09-11T09:08:02.307Z,98004.06
2022-09-11T09:10:34.070Z,97996.50
2022-09-11T09:12:53.109Z,97997.63
2022-09-11T09:15:28.783Z,97989.97
2022-09-11T09:17:43.059Z,97994.16
2022-09-11T09:20:00.585Z,98001.44
2022-09-11T09:22:17.312Z,97999.84
2022-09-11T09:24:26.666Z,98005.84
2022-09-11T09:26:43.571Z,98000.63
2022-09-11T09:28:55.668Z,98005.44
2022-09-11T09:31:08.136Z,98009.25
2022-09-11T09:33:31.290Z,98003.84
2022-09-11T09:35:44.741Z,98009.66
2022-09-11T09:37:56.996Z,98012.78
2022-09-11T09:40:08.301Z,98011.78
2022-09-11T09:42:51.547Z,98038.06
2022-09-11T09:45:23.515Z,98042.09
2022-09-11T09:47:31.513Z,98063.09
2022-09-11T09:49:39.965Z,98072.53
2022-09-11T09:51:48.410Z,98089.44
2022-09-11T09:54:00.558Z,98085.94
2022-09-11T09:56:09.582Z,98086.31
2022-09-11T09:58:20.683Z,98084.38
2022-09-11T10:00:31.145Z,98091.19
2022-09-11T10:02:45.235Z,98076.97
2022-09-11T10:05:10.713Z,98089.63
2022-09-11T10:07:24.507Z,98063.25
2022-09-11T10:09:33.057Z,98055.38
2022-09-11T10:11:43.381Z,98053.25
2022-09-11T10:14:01.818Z,98036.75
2022-09-11T10:16:25.865Z,98024.00
2022-09-11T10:18:46.224Z,98005.50
2022-09-11T10:20:54.870Z,98003.44
2022-09-11T10:23:27.173Z,98010.66
2022-09-11T10:25:50.501Z,98021.44
2022-09-11T10:28:06.284Z,98029.13
2022-09-11T10:30:39.091Z,98033.78
2022-09-11T10:32:49.037Z,98022.81
2022-09-11T10:34:56.924Z,98013.13
2022-09-11T10:37:10.249Z,98007.50
2022-09-11T10:39:22.272Z,98002.75
2022-09-11T10:41:32.281Z,98007.75
2022-09-11T10:43:50.335Z,98008.25
2022-09-11T10:46:24.165Z,98023.16
2022-09-11T10:48:31.966Z,98020.56
2022-09-11T10:50:39.763Z,98015.56
2022-09-11T10:52:53.958Z,98024.91
2022-09-11T10:55:06.821Z,98018.41
2022-09-11T10:57:24.017Z,98018.25
2022-09-11T10:59:41.160Z,98010.91
2022-09-11T11:01:54.637Z,98017.03
2022-09-11T11:04:02.844Z,98010.03
2022-09-11T11:06:26.098Z,98004.66
2022-09-11T11:09:01.136Z,98002.41
2022-09-11T11:11:22.363Z,97998.22
2022-09-11T11:13:50.002Z,98002.78
2022-09-11T11:16:10.787Z,98004.66
2022-09-11T11:18:34.494Z,98009.63
2022-09-11T11:20:49.912Z,98016.06
2022-09-11T11:23:28.679Z,97994.72
2022-09-11T11:25:47.823Z,98011.63
2022-09-11T11:28:17.756Z,97997.56
2022-09-11T11:30:31.410Z,97998.22
2022-09-11T11:33:16.630Z,97993.28
2022-09-11T11:35:33.404Z,98001.63
2022-09-11T11:37:44.392Z,98002.94
2022-09-11T11:40:03.169Z,97988.59
2022-09-11T11:42:19.176Z,97994.09
2022-09-11T11:44:33.111Z,97993.34
2022-09-11T11:46:46.383Z,97990.59
2022-09-11T11:48:59.446Z,97991.34
2022-09-11T11:51:15.388Z,98006.84
2022-09-11T11:53:27.328Z,98001.88
2022-09-11T11:55:46.501Z,98014.03
2022-09-11T11:58:04.668Z,98003.63
2022-09-11T12:00:16.146Z,98012.38
2022-09-11T12:02:30.134Z,98003.91
2022-09-11T12:04:47.063Z,98006.50
2022-09-11T12:06:57.745Z,98001.81
2022-09-11T12:09:11.367Z,97999.59
2022-09-11T12:11:28.999Z,98002.19
2022-09-11T12:13:39.788Z,98007.28
2022-09-11T12:16:07.345Z,98003.03
2022-09-11T12:18:26.878Z,97993.69
2022-09-11T12:20:40.862Z,98005.00
2022-09-11T12:22:53.032Z,98001.84
2022-09-11T12:25:01.645Z,97996.59
2022-09-11T12:27:52.006Z,98000.16
2022-09-11T12:30:10.327Z,98007.25
2022-09-11T12:32:29.795Z,98007.94
2022-09-11T12:35:06.116Z,97992.53
2022-09-11T12:37:18.221Z,98003.72
2022-09-11T12:39:41.738Z,97995.91
2022-09-11T12:41:49.565Z,98001.88
2022-09-11T12:43:58.189Z,98003.56
2022-09-11T12:46:06.886Z,98008.81
2022-09-11T12:48:18.737Z,98007.75
2022-09-11T12:50:30.075Z,98010.47
2022-09-11T12:52:49.265Z,98007.56
2022-09-11T12:55:23.862Z,97996.56
2022-09-11T12:57:36.855Z,97997.09
2022-09-11T12:59:48.285Z,97990.44
2022-09-11T13:01:57.487Z,97996.22
2022-09-11T13:04:17.746Z,97993.34
2022-09-11T13:06:27.701Z,97992.50
2022-09-11T13:08:41.683Z,97988.41
2022-09-11T13:10:52.754Z,97994.38
2022-09-11T13:13:07.399Z,97988.63
2022-09-11T13:15:39.539Z,97986.41
2022-09-11T13:17:50.150Z,97984.19
2022-09-11T13:20:22.112Z,97989.97
2022-09-11T13:22:32.071Z,97988.28
2022-09-11T13:24:44.918Z,97982.44
2022-09-11T13:26:58.171Z,97971.94
2022-09-11T13:29:06.863Z,97971.44
2022-09-11T13:31:22.771Z,97971.41
2022-09-11T13:33:32.235Z,97969.47
2022-09-11T13:35:41.534Z,97953.22
2022-09-11T13:37:58.376Z,97959.66
2022-09-11T13:40:08.891Z,97956.78
2022-09-11T13:42:25.941Z,97958.47
2022-09-11T13:44:41.678Z,97953.41
2022-09-11T13:46:54.143Z,97955.44
2022-09-11T13:49:29.130Z,97957.56
2022-09-11T13:51:49.156Z,97953.72
2022-09-11T13:54:15.647Z,97953.78
2022-09-11T13:56:41.591Z,97958.09
2022-09-11T13:58:53.644Z,97957.09
2022-09-11T14:01:14.368Z,97944.50
2022-09-11T14:03:28.105Z,97955.47
2022-09-11T14:05:36.880Z,97941.31
2022-09-11T14:07:49.364Z,97949.53
2022-09-11T14:10:12.665Z,97948.88
2022-09-11T14:12:21.292Z,97944.34
2022-09-11T14:14:33.228Z,97945.94
2022-09-11T14:16:51.460Z,97934.03
2022-09-11T14:19:03.861Z,97946.91
2022-09-11T14:21:17.982Z,97947.78
2022-09-11T14:23:28.264Z,97947.28
2022-09-11T14:25:36.159Z,97936.75
2022-09-11T14:27:47.132Z,97940.50
2022-09-11T14:29:58.025Z,97937.47
2022-09-11T14:32:53.210Z,97933.22
2022-09-11T14:35:03.377Z,97939.16
2022-09-11T14:37:15.463Z,97926.25
2022-09-11T14:39:34.011Z,97929.19
2022-09-11T14:41:48.635Z,97932.88
2022-09-11T14:44:05.748Z,97942.00
2022-09-11T14:46:18.150Z,97941.31
2022-09-11T14:48:27.328Z,97926.56
2022-09-11T14:50:35.181Z,97921.88
2022-09-11T14:52:43.625Z,97927.00
2022-09-11T14:54:52.814Z,97918.66
2022-09-11T14:57:01.162Z,97924.03
2022-09-11T14:59:09.292Z,97919.94
2022-09-11T15:01:19.821Z,97913.28
2022-09-11T15:03:28.868Z,97915.41
2022-09-11T15:05:36.717Z,97917.34
2022-09-11T15:07:45.574Z,97915.97
2022-09-11T15:09:54.450Z,97921.19
2022-09-11T15:12:02.219Z,97919.00
2022-09-11T15:14:20.681Z,97919.06
2022-09-11T15:16:53.067Z,97916.59
2022-09-11T15:19:01.418Z,97912.44
2022-09-11T15:21:10.552Z,97908.88
2022-09-11T15:23:18.886Z,97910.13
2022-09-11T15:25:26.761Z,97908.50
2022-09-11T15:27:34.680Z,97900.84
2022-09-11T15:29:42.707Z,97898.19
2022-09-11T15:31:53.706Z,97896.50
2022-09-11T15:34:05.915Z,97895.00
2022-09-11T15:36:14.184Z,97896.19
2022-09-11T15:38:23.347Z,97893.84
2022-09-11T15:40:31.468Z,97895.38
2022-09-11T15:42:39.870Z,97893.63
2022-09-11T15:44:48.029Z,97888.66
2022-09-11T15:47:00.358Z,97892.34
2022-09-11T15:49:09.124Z,97880.38
2022-09-11T15:51:18.994Z,97890.03
2022-09-11T15:53:29.348Z,97885.00
2022-09-11T15:55:37.148Z,97889.88
2022-09-11T15:57:46.749Z,97886.97
2022-09-11T15:59:54.657Z,97894.25
2022-09-11T16:02:05.297Z,97889.69
2022-09-11T16:04:15.272Z,97886.22
2022-09-11T16:06:23.953Z,97880.81
2022-09-11T16:08:31.645Z,97879.69
2022-09-11T16:10:41.929Z,97883.44
2022-09-11T16:12:49.761Z,97883.72
2022-09-11T16:14:57.557Z,97871.22
2022-09-11T16:17:09.626Z,97878.97
2022-09-11T16:19:18.643Z,97879.69
2022-09-11T16:21:27.271Z,97879.44
2022-09-11T16:23:36.284Z,97884.38
2022-09-11T16:25:45.108Z,97879.63
2022-09-11T16:27:53.234Z,97877.13
2022-09-11T16:30:41.732Z,97873.09
2022-09-11T16:32:34.200Z,97878.53
2022-09-11T16:34:42.384Z,97879.16
2022-09-11T16:36:50.224Z,97883.06
2022-09-11T16:38:58.608Z,97882.50
2022-09-11T16:41:14.254Z,97879.63
2022-09-11T16:43:21.987Z,97877.69
2022-09-11T16:45:29.795Z,97883.06
2022-09-11T16:47:40.100Z,97876.00
2022-09-11T16:50:06.450Z,97871.13
2022-09-11T16:52:17.501Z,97874.50
2022-09-11T16:54:25.394Z,97875.91
2022-09-11T16:56:33.293Z,97874.88
2022-09-11T16:58:42.246Z,97882.34
2022-09-11T17:00:50.447Z,97876.56
2022-09-11T17:03:01.142Z,97875.91
2022-09-11T17:05:10.939Z,97876.34
2022-09-11T17:07:20.956Z,97864.38
2022-09-11T17:09:29.270Z,97861.84
2022-09-11T17:11:37.305Z,97852.66
2022-09-11T17:13:46.784Z,97858.69
2022-09-11T17:15:54.801Z,97866.31
2022-09-11T17:18:05.440Z,97862.63
2022-09-11T17:20:15.030Z,97858.38
2022-09-11T17:22:22.937Z,97856.41
2022-09-11T17:24:31.911Z,97858.38
2022-09-11T17:26:40.083Z,97853.25
2022-09-11T17:29:34.672Z,97852.69
2022-09-11T17:31:42.730Z,97851.69
2022-09-11T17:33:53.512Z,97848.94
2022-09-11T17:36:01.894Z,97856.00
2022-09-11T17:38:09.648Z,97853.47
2022-09-11T17:40:17.742Z,97854.94
2022-09-11T17:42:25.818Z,97849.44
2022-09-11T17:44:33.984Z,97856.84
2022-09-11T17:46:42.105Z,97862.38
2022-09-11T17:48:50.608Z,97862.28
2022-09-11T17:51:06.835Z,97866.00
2022-09-11T17:53:17.257Z,97865.31
2022-09-11T17:55:26.996Z,97868.13
2022-09-11T17:57:35.207Z,97868.56
2022-09-11T17:59:44.174Z,97873.25
2022-09-11T18:01:52.297Z,97872.81
2022-09-11T18:04:01.521Z,97873.97
2022-09-11T18:06:21.521Z,97869.28
2022-09-11T18:08:31.425Z,97883.03
2022-09-11T18:10:39.341Z,97872.97
2022-09-11T18:12:48.424Z,97871.53
2022-09-11T18:14:59.240Z,97868.03
2022-09-11T18:17:07.164Z,97876.22
2022-09-11T18:19:15.371Z,97876.22
2022-09-11T18:21:26.554Z,97874.91
2022-09-11T18:23:34.683Z,97876.31
2022-09-11T18:25:44.070Z,97875.34
2022-09-11T18:27:54.958Z,97878.38
2022-09-11T18:30:02.859Z,97886.41
2022-09-11T18:32:12.225Z,97887.09
2022-09-11T18:34:23.972Z,97883.97
2022-09-11T18:36:36.179Z,97881.72
2022-09-11T18:38:43.949Z,97877.75
2022-09-11T18:41:00.165Z,97879.56
2022-09-11T18:43:10.307Z,97879.38
2022-09-11T18:45:18.658Z,97879.06
2022-09-11T18:47:28.136Z,97879.78
2022-09-11T18:49:35.965Z,97883.13
2022-09-11T18:51:46.785Z,97879.84
2022-09-11T18:53:57.434Z,97885.94
2022-09-11T18:56:07.166Z,97886.22
2022-09-11T18:58:14.983Z,97882.50
2022-09-11T19:00:22.886Z,97882.31
2022-09-11T19:02:30.693Z,97876.59
2022-09-11T19:04:39.124Z,97881.22
2022-09-11T19:06:49.500Z,97881.84
2022-09-11T19:09:00.318Z,97882.69
2022-09-11T19:11:10.668Z,97888.91
2022-09-11T19:13:20.359Z,97884.53
2022-09-11T19:15:29.821Z,97889.44
2022-09-11T19:17:38.260Z,97886.47
2022-09-11T19:19:46.484Z,97890.13
2022-09-11T19:21:57.081Z,97888.63
2022-09-11T19:24:06.722Z,97896.34
2022-09-11T19:26:17.989Z,97892.34
2022-09-11T19:28:25.832Z,97890.03
2022-09-11T19:30:33.596Z,97895.06
2022-09-11T19:32:41.639Z,97895.94
2022-09-11T19:34:49.689Z,97903.25
2022-09-11T19:37:00.354Z,97899.50
2022-09-11T19:39:09.452Z,97900.88
2022-09-11T19:41:19.770Z,97901.47
2022-09-11T19:43:31.161Z,97893.72
2022-09-11T19:45:39.719Z,97889.19
2022-09-11T19:47:47.565Z,97896.06
2022-09-11T19:50:00.456Z,97892.91
2022-09-11T19:52:11.781Z,97889.34
2022-09-11T19:54:19.739Z,97888.97
2022-09-11T19:56:29.788Z,97890.38
2022-09-11T19:58:38.797Z,97884.56
2022-09-11T20:00:46.755Z,97887.13
2022-09-11T20:02:54.981Z,97888.03
2022-09-11T20:05:03.088Z,97885.44
2022-09-11T20:07:13.657Z,97886.81
2022-09-11T20:09:31.773Z,97885.19
2022-09-11T20:11:40.299Z,97894.16
2022-09-11T20:13:48.556Z,97890.13
2022-09-11T20:15:56.448Z,97886.00
2022-09-11T20:18:04.272Z,97894.13
2022-09-11T20:20:12.268Z,97892.69
2022-09-11T20:22:24.736Z,97899.13
2022-09-11T20:24:32.460Z,97889.06
2022-09-11T20:26:40.227Z,97896.97
2022-09-11T20:28:49.280Z,97896.56
2022-09-11T20:30:57.865Z,97894.66
2022-09-11T20:33:05.761Z,97895.84
2022-09-11T20:35:15.951Z,97903.16
2022-09-11T20:37:26.512Z,97898.66
2022-09-11T20:39:34.456Z,97897.69
2022-09-11T20:41:43.588Z,97902.78
2022-09-11T20:43:51.646Z,97899.75
2022-09-11T20:46:00.609Z,97899.75
2022-09-11T20:48:08.466Z,97899.63
2022-09-11T20:50:16.312Z,97902.19
2022-09-11T20:52:26.791Z,97892.69
2022-09-11T20:54:34.930Z,97888.69
2022-09-11T20:56:45.282Z,97887.59
2022-09-11T20:58:53.388Z,97880.16
2022-09-11T21:01:01.872Z,97881.63
2022-09-11T21:03:12.647Z,97882.34
2022-09-11T21:05:20.759Z,97881.13
2022-09-11T21:07:31.368Z,97869.94
2022-09-11T21:09:40.197Z,97871.91
2022-09-11T21:11:48.123Z,97868.25
2022-09-11T21:13:56.354Z,97874.78
2022-09-11T21:16:11.079Z,97875.50
2022-09-11T21:18:19.086Z,97868.81
2022-09-11T21:20:28.563Z,97870.28
2022-09-11T21:22:39.141Z,97868.69
2022-09-11T21:24:47.965Z,97865.50
2022-09-11T21:26:55.980Z,97868.78
2022-09-11T21:29:06.615Z,97864.00
2022-09-11T21:31:14.836Z,97869.00
2022-09-11T21:33:22.668Z,97857.72
2022-09-11T21:35:31.523Z,97858.47
2022-09-11T21:37:44.455Z,97862.34
2022-09-11T21:39:52.319Z,97866.34
2022-09-11T21:42:00.401Z,97859.50
2022-09-11T21:44:08.263Z,97872.84
2022-09-11T21:46:19.190Z,97860.63
2022-09-11T21:48:27.121Z,97863.88
2022-09-11T21:50:35.583Z,97860.59
2022-09-11T21:52:46.426Z,97853.31
2022-09-11T21:54:54.829Z,97859.38
2022-09-11T21:57:02.617Z,97851.50
2022-09-11T21:59:10.646Z,97852.34
2022-09-11T22:01:18.709Z,97842.88
2022-09-11T22:03:26.759Z,97846.81
2022-09-11T22:05:34.666Z,97851.81
2022-09-11T22:07:45.250Z,97852.09
2022-09-11T22:09:53.444Z,97852.91
2022-09-11T22:12:01.341Z,97854.44
2022-09-11T22:14:09.181Z,97850.28
2022-09-11T22:16:20.313Z,97851.50
2022-09-11T22:18:28.521Z,97854.50
2022-09-11T22:20:36.564Z,97847.31
2022-09-11T22:22:48.449Z,97846.03
2022-09-11T22:24:56.788Z,97843.84
2022-09-11T22:27:04.638Z,97836.78
2022-09-11T22:29:13.136Z,97839.00
2022-09-11T22:31:23.923Z,97835.00
2022-09-11T22:33:31.870Z,97831.13
2022-09-11T22:35:52.224Z,97827.09
2022-09-11T22:38:04.536Z,97829.25
2022-09-11T22:40:13.477Z,97824.53
2022-09-11T22:42:21.316Z,97823.78
2022-09-11T22:44:29.092Z,97819.88
2022-09-11T22:46:37.098Z,97818.91
2022-09-11T22:48:45.832Z,97820.47
2022-09-11T22:50:54.335Z,97823.72
2022-09-11T22:53:04.765Z,97823.34
2022-09-11T22:55:13.360Z,97825.03
2022-09-11T22:57:21.383Z,97822.75
2022-09-11T22:59:36.133Z,97816.63
2022-09-11T23:01:44.167Z,97819.91
2022-09-11T23:03:53.197Z,97822.50
2022-09-11T23:06:15.102Z,97813.63
2022-09-11T23:08:29.995Z,97818.34
2022-09-11T23:10:43.171Z,97808.97
2022-09-11T23:12:52.607Z,97809.06
2022-09-11T23:15:03.182Z,97812.81
2022-09-11T23:17:10.903Z,97800.06
2022-09-11T23:19:18.896Z,97804.63
2022-09-11T23:21:26.729Z,97793.56
2022-09-11T23:23:41.143Z,97795.72
2022-09-11T23:25:48.910Z,97791.94
2022-09-11T23:27:56.703Z,97792.19
2022-09-11T23:30:04.536Z,97784.41
2022-09-11T23:32:12.710Z,97782.69
2022-09-11T23:34:21.037Z,97779.38
2022-09-11T23:36:30.456Z,97781.00
2022-09-11T23:38:41.332Z,97782.69
2022-09-11T23:40:49.345Z,97778.25
2022-09-11T23:42:57.556Z,97783.69
2022-09-11T23:45:07.611Z,97781.47
2022-09-11T23:47:18.260Z,97781.72
2022-09-11T23:49:26.106Z,97779.25
2022-09-11T23:51:36.799Z,97774.44
2022-09-11T23:53:49.402Z,97780.44
2022-09-11T23:55:57.671Z,97775.41
2022-09-11T23:58:06.573Z,97769.97
